createdAt,value
2018-12-19T00:00:50.462Z,1006.00
2018-12-19T00:02:43.442Z,1005.91
2018-12-19T00:03:43.491Z,1005.87
2018-12-19T00:05:36.468Z,1005.85
2018-12-19T00:06:36.520Z,1005.81
2018-12-19T00:08:29.502Z,1005.70
2018-12-19T00:09:29.563Z,1005.71
2018-12-19T00:11:22.536Z,1005.68
2018-12-19T00:12:22.598Z,1005.68
2018-12-19T00:14:15.570Z,1005.63
2018-12-19T00:15:15.618Z,1005.65
2018-12-19T00:17:08.592Z,1005.62
2018-12-19T00:18:08.647Z,1005.66
2018-12-19T00:20:01.627Z,1005.65
2018-12-19T00:21:01.678Z,1005.65
2018-12-19T00:22:54.659Z,1005.60
2018-12-19T00:23:54.707Z,1005.57
2018-12-19T00:25:47.682Z,1005.58
2018-12-19T00:26:47.735Z,1005.61
2018-12-19T00:28:40.715Z,1005.52
2018-12-19T00:29:40.764Z,1005.55
2018-12-19T00:31:33.745Z,1005.50
2018-12-19T00:32:33.797Z,1005.45
2018-12-19T00:34:26.773Z,1005.44
2018-12-19T00:35:26.834Z,1005.47
2018-12-19T00:37:19.797Z,1005.38
2018-12-19T00:38:19.853Z,1005.37
2018-12-19T00:40:12.839Z,1005.40
2018-12-19T00:41:12.885Z,1005.40
2018-12-19T00:43:05.867Z,1005.47
2018-12-19T00:44:05.913Z,1005.50
2018-12-19T00:45:58.888Z,1005.50
2018-12-19T00:46:58.945Z,1005.58
2018-12-19T00:48:51.922Z,1005.57
2018-12-19T00:49:51.979Z,1005.61
2018-12-19T00:51:44.953Z,1005.55
2018-12-19T00:52:45.002Z,1005.55
2018-12-19T00:54:37.986Z,1005.58
2018-12-19T00:55:38.036Z,1005.60
2018-12-19T00:57:31.010Z,1005.56
2018-12-19T00:58:31.066Z,1005.62
2018-12-19T01:00:24.047Z,1005.64
2018-12-19T01:01:24.096Z,1005.62
2018-12-19T01:03:17.084Z,1005.55
2018-12-19T01:04:17.130Z,1005.51
2018-12-19T01:06:10.107Z,1005.51
2018-12-19T01:07:10.159Z,1005.46
2018-12-19T01:09:03.139Z,1005.42
2018-12-19T01:10:03.188Z,1005.40
2018-12-19T01:11:56.163Z,1005.33
2018-12-19T01:12:56.216Z,1005.31
2018-12-19T01:14:49.199Z,1005.28
2018-12-19T01:15:49.252Z,1005.24
2018-12-19T01:17:42.249Z,1005.29
2018-12-19T01:18:42.299Z,1005.28
2018-12-19T01:20:35.281Z,1005.20
2018-12-19T01:21:35.329Z,1005.14
2018-12-19T01:23:28.322Z,1005.15
2018-12-19T01:24:28.377Z,1005.13
2018-12-19T01:26:21.349Z,1005.13
2018-12-19T01:27:21.416Z,1005.11
2018-12-19T01:29:14.383Z,1005.04
2018-12-19T01:30:14.445Z,1005.04
2018-12-19T01:32:07.414Z,1004.97
2018-12-19T01:33:07.471Z,1004.98
2018-12-19T01:35:00.452Z,1004.97
2018-12-19T01:36:00.499Z,1004.94
2018-12-19T01:37:53.475Z,1004.95
2018-12-19T01:38:53.531Z,1004.99
2018-12-19T01:40:46.512Z,1005.02
2018-12-19T01:41:46.567Z,1005.04
2018-12-19T01:43:39.551Z,1005.00
2018-12-19T01:44:39.605Z,1004.95
2018-12-19T01:46:32.575Z,1004.92
2018-12-19T01:47:32.632Z,1004.89
2018-12-19T01:49:25.608Z,1004.94
2018-12-19T01:50:25.659Z,1005.02
2018-12-19T01:52:18.642Z,1005.03
2018-12-19T01:53:18.692Z,1005.00
2018-12-19T01:55:11.673Z,1005.00
2018-12-19T01:56:11.722Z,1005.00
2018-12-19T01:58:04.698Z,1004.88
2018-12-19T01:59:04.753Z,1004.88
2018-12-19T02:00:57.732Z,1004.87
2018-12-19T02:01:57.785Z,1005.01
2018-12-19T02:03:50.767Z,1005.02
2018-12-19T02:04:50.817Z,1004.98
2018-12-19T02:06:43.795Z,1005.04
2018-12-19T02:07:43.850Z,1004.99
2018-12-19T02:09:36.836Z,1005.01
2018-12-19T02:10:36.879Z,1004.90
2018-12-19T02:12:29.856Z,1004.90
2018-12-19T02:13:29.911Z,1004.94
2018-12-19T02:15:22.897Z,1005.07
2018-12-19T02:16:22.947Z,1005.07
2018-12-19T02:18:15.921Z,1005.07
2018-12-19T02:19:15.976Z,1005.02
2018-12-19T02:21:08.957Z,1005.10
2018-12-19T02:22:09.004Z,1005.12
2018-12-19T02:24:01.987Z,1005.11
2018-12-19T02:25:02.037Z,1005.11
2018-12-19T02:26:55.012Z,1005.11
2018-12-19T02:27:55.075Z,1005.10
2018-12-19T02:29:48.051Z,1005.15
2018-12-19T02:30:48.103Z,1005.19
2018-12-19T02:32:41.077Z,1005.29
2018-12-19T02:33:41.133Z,1005.26
2018-12-19T02:35:34.112Z,1005.31
2018-12-19T02:37:47.102Z,1005.29
2018-12-19T02:38:47.159Z,1005.30
2018-12-19T02:40:40.145Z,1005.31
2018-12-19T02:41:40.196Z,1005.30
2018-12-19T02:43:33.173Z,1005.29
2018-12-19T02:44:33.227Z,1005.26
2018-12-19T02:46:26.209Z,1005.24
2018-12-19T02:47:26.262Z,1005.25
2018-12-19T02:49:19.245Z,1005.25
2018-12-19T02:50:19.293Z,1005.23
2018-12-19T02:52:12.268Z,1005.21
2018-12-19T02:53:12.322Z,1005.27
2018-12-19T02:55:05.306Z,1005.23
2018-12-19T02:56:05.352Z,1005.21
2018-12-19T02:57:58.390Z,1005.15
2018-12-19T02:58:58.385Z,1005.21
2018-12-19T03:00:51.369Z,1005.21
2018-12-19T03:01:51.416Z,1005.19
2018-12-19T03:03:44.405Z,1005.24
2018-12-19T03:04:44.461Z,1005.23
2018-12-19T03:06:37.442Z,1005.34
2018-12-19T03:07:37.492Z,1005.32
2018-12-19T03:09:30.472Z,1005.29
2018-12-19T03:10:30.520Z,1005.33
2018-12-19T03:12:23.503Z,1005.30
2018-12-19T03:13:23.558Z,1005.33
2018-12-19T03:15:16.551Z,1005.30
2018-12-19T03:16:16.593Z,1005.28
2018-12-19T03:18:09.572Z,1005.17
2018-12-19T03:19:09.631Z,1005.18
2018-12-19T03:21:02.610Z,1005.12
2018-12-19T03:22:02.657Z,1005.12
2018-12-19T03:23:55.638Z,1005.10
2018-12-19T03:24:55.689Z,1005.09
2018-12-19T03:26:48.670Z,1005.16
2018-12-19T03:27:48.721Z,1005.14
2018-12-19T03:29:41.709Z,1005.19
2018-12-19T03:30:41.759Z,1005.20
2018-12-19T03:32:34.741Z,1005.20
2018-12-19T03:33:34.798Z,1005.24
2018-12-19T03:35:27.777Z,1005.17
2018-12-19T03:36:27.828Z,1005.15
2018-12-19T03:38:20.804Z,1005.18
2018-12-19T03:39:20.861Z,1005.17
2018-12-19T03:41:13.843Z,1005.11
2018-12-19T03:42:13.898Z,1005.13
2018-12-19T03:44:06.866Z,1005.06
2018-12-19T03:45:06.929Z,1004.99
2018-12-19T03:46:59.914Z,1004.89
2018-12-19T03:47:59.956Z,1004.91
2018-12-19T03:49:52.934Z,1004.84
2018-12-19T03:50:52.978Z,1004.79
2018-12-19T03:52:45.965Z,1004.76
2018-12-19T03:53:46.023Z,1004.75
2018-12-19T03:55:39.046Z,1004.69
2018-12-19T03:56:39.060Z,1004.70
2018-12-19T03:58:32.031Z,1004.67
2018-12-19T03:59:32.082Z,1004.58
2018-12-19T04:01:25.070Z,1004.56
2018-12-19T04:02:25.122Z,1004.61
2018-12-19T04:04:18.119Z,1004.57
2018-12-19T04:05:18.158Z,1004.48
2018-12-19T04:07:11.147Z,1004.48
2018-12-19T04:08:11.205Z,1004.42
2018-12-19T04:10:04.173Z,1004.49
2018-12-19T04:11:04.222Z,1004.44
2018-12-19T04:12:57.197Z,1004.46
2018-12-19T04:13:57.254Z,1004.45
2018-12-19T04:15:50.237Z,1004.45
2018-12-19T04:16:50.284Z,1004.39
2018-12-19T04:18:43.263Z,1004.35
2018-12-19T04:19:43.320Z,1004.34
2018-12-19T04:21:36.308Z,1004.36
2018-12-19T04:22:36.374Z,1004.38
2018-12-19T04:24:29.347Z,1004.37
2018-12-19T04:25:29.383Z,1004.36
2018-12-19T04:27:22.391Z,1004.25
2018-12-19T04:28:22.417Z,1004.22
2018-12-19T04:30:15.398Z,1004.25
2018-12-19T04:31:15.451Z,1004.15
2018-12-19T04:33:08.424Z,1004.11
2018-12-19T04:34:08.480Z,1004.12
2018-12-19T04:36:01.461Z,1004.17
2018-12-19T04:37:01.510Z,1004.23
2018-12-19T04:38:54.484Z,1004.27
2018-12-19T04:39:54.539Z,1004.25
2018-12-19T04:41:47.527Z,1004.26
2018-12-19T04:42:47.572Z,1004.29
2018-12-19T04:44:40.567Z,1004.27
2018-12-19T04:45:40.620Z,1004.31
2018-12-19T04:47:34.124Z,1004.30
2018-12-19T04:48:34.173Z,1004.34
2018-12-19T04:50:27.157Z,1004.37
2018-12-19T04:51:27.209Z,1004.36
2018-12-19T04:53:20.190Z,1004.32
2018-12-19T04:54:20.241Z,1004.33
2018-12-19T04:56:13.225Z,1004.28
2018-12-19T04:57:13.273Z,1004.21
2018-12-19T04:59:06.252Z,1004.24
2018-12-19T05:00:06.308Z,1004.27
2018-12-19T05:01:59.321Z,1004.29
2018-12-19T05:02:59.367Z,1004.32
2018-12-19T05:04:52.349Z,1004.37
2018-12-19T05:05:52.408Z,1004.41
2018-12-19T05:07:45.389Z,1004.45
2018-12-19T05:08:45.441Z,1004.44
2018-12-19T05:10:38.426Z,1004.48
2018-12-19T05:11:38.473Z,1004.54
2018-12-19T05:13:31.450Z,1004.53
2018-12-19T05:14:31.500Z,1004.49
2018-12-19T05:16:24.486Z,1004.47
2018-12-19T05:17:24.538Z,1004.46
2018-12-19T05:19:17.517Z,1004.46
2018-12-19T05:20:17.571Z,1004.47
2018-12-19T05:22:10.559Z,1004.52
2018-12-19T05:23:10.607Z,1004.48
2018-12-19T05:25:03.582Z,1004.53
2018-12-19T05:26:03.634Z,1004.56
2018-12-19T05:27:56.618Z,1004.53
2018-12-19T05:28:56.671Z,1004.53
2018-12-19T05:30:49.653Z,1004.57
2018-12-19T05:31:49.703Z,1004.58
2018-12-19T05:33:42.672Z,1004.58
2018-12-19T05:34:42.729Z,1004.60
2018-12-19T05:36:35.724Z,1004.66
2018-12-19T05:37:35.769Z,1004.65
2018-12-19T05:39:28.744Z,1004.71
2018-12-19T05:40:28.800Z,1004.66
2018-12-19T05:42:21.782Z,1004.67
2018-12-19T05:43:21.831Z,1004.64
2018-12-19T05:45:14.833Z,1004.68
2018-12-19T05:46:14.888Z,1004.72
2018-12-19T05:48:08.381Z,1004.70
2018-12-19T05:49:08.427Z,1004.72
2018-12-19T05:51:01.409Z,1004.74
2018-12-19T05:52:01.459Z,1004.74
2018-12-19T05:53:54.445Z,1004.78
2018-12-19T05:54:54.493Z,1004.76
2018-12-19T05:56:48.983Z,1004.81
2018-12-19T05:57:49.039Z,1004.82
2018-12-19T05:59:42.013Z,1004.83
2018-12-19T06:00:42.068Z,1004.81
2018-12-19T06:02:35.063Z,1004.77
2018-12-19T06:03:35.109Z,1004.82
2018-12-19T06:05:28.083Z,1004.80
2018-12-19T06:06:28.141Z,1004.83
2018-12-19T06:08:21.139Z,1004.82
2018-12-19T06:09:21.175Z,1004.82
2018-12-19T06:11:14.158Z,1004.81
2018-12-19T06:12:14.206Z,1004.82
2018-12-19T06:14:07.186Z,1004.83
2018-12-19T06:15:07.243Z,1004.85
2018-12-19T06:17:00.224Z,1004.88
2018-12-19T06:18:00.272Z,1004.93
2018-12-19T06:19:53.246Z,1005.00
2018-12-19T06:20:53.302Z,1004.97
2018-12-19T06:22:46.296Z,1005.00
2018-12-19T06:23:46.345Z,1004.95
2018-12-19T06:25:39.337Z,1004.91
2018-12-19T06:26:39.382Z,1004.78
2018-12-19T06:28:32.365Z,1004.86
2018-12-19T06:29:32.415Z,1004.96
2018-12-19T06:31:25.396Z,1005.02
2018-12-19T06:32:25.446Z,1004.96
2018-12-19T06:34:18.424Z,1004.96
2018-12-19T06:35:18.473Z,1004.89
2018-12-19T06:37:11.466Z,1004.97
2018-12-19T06:38:11.525Z,1004.97
2018-12-19T06:40:04.487Z,1004.99
2018-12-19T06:41:04.545Z,1005.00
2018-12-19T06:42:58.059Z,1004.99
2018-12-19T06:43:58.083Z,1005.01
2018-12-19T06:45:51.055Z,1005.00
2018-12-19T06:46:51.110Z,1005.04
2018-12-19T06:48:44.093Z,1005.14
2018-12-19T06:49:44.154Z,1005.13
2018-12-19T06:51:37.126Z,1005.12
2018-12-19T06:52:37.182Z,1005.12
2018-12-19T06:54:30.155Z,1005.08
2018-12-19T06:55:30.208Z,1005.06
2018-12-19T06:57:23.202Z,1005.07
2018-12-19T06:58:23.252Z,1005.06
2018-12-19T07:00:16.230Z,1005.12
2018-12-19T07:01:16.282Z,1005.13
2018-12-19T07:03:09.262Z,1005.16
2018-12-19T07:04:09.313Z,1005.13
2018-12-19T07:06:02.293Z,1005.15
2018-12-19T07:07:02.350Z,1005.16
2018-12-19T07:08:55.338Z,1005.19
2018-12-19T07:09:55.382Z,1005.18
2018-12-19T07:11:48.371Z,1005.23
2018-12-19T07:12:48.414Z,1005.26
2018-12-19T07:14:41.389Z,1005.24
2018-12-19T07:15:41.447Z,1005.26
2018-12-19T07:17:34.427Z,1005.26
2018-12-19T07:18:34.475Z,1005.25
2018-12-19T07:20:27.459Z,1005.27
2018-12-19T07:21:27.515Z,1005.28
2018-12-19T07:23:20.492Z,1005.31
2018-12-19T07:24:20.541Z,1005.30
2018-12-19T07:26:13.521Z,1005.27
2018-12-19T07:27:13.580Z,1005.30
2018-12-19T07:29:06.558Z,1005.29
2018-12-19T07:30:06.784Z,1005.30
2018-12-19T07:31:59.597Z,1005.36
2018-12-19T07:32:59.640Z,1005.35
2018-12-19T07:34:52.615Z,1005.40
2018-12-19T07:35:52.671Z,1005.43
2018-12-19T07:37:45.653Z,1005.45
2018-12-19T07:38:45.702Z,1005.49
2018-12-19T07:40:38.679Z,1005.46
2018-12-19T07:41:38.734Z,1005.47
2018-12-19T07:43:32.225Z,1005.41
2018-12-19T07:44:32.271Z,1005.49
2018-12-19T07:46:25.245Z,1005.50
2018-12-19T07:47:25.321Z,1005.54
2018-12-19T07:49:18.278Z,1005.49
2018-12-19T07:50:18.330Z,1005.55
2018-12-19T07:52:11.310Z,1005.53
2018-12-19T07:53:11.359Z,1005.56
2018-12-19T07:55:04.338Z,1005.53
2018-12-19T07:56:04.397Z,1005.54
2018-12-19T07:57:57.375Z,1005.53
2018-12-19T07:58:57.453Z,1005.49
2018-12-19T08:00:50.405Z,1005.52
2018-12-19T08:01:50.462Z,1005.58
2018-12-19T08:03:43.443Z,1005.62
2018-12-19T08:04:43.490Z,1005.64
2018-12-19T08:06:36.472Z,1005.60
2018-12-19T08:07:36.529Z,1005.60
2018-12-19T08:09:29.517Z,1005.64
2018-12-19T08:10:29.563Z,1005.68
2018-12-19T08:12:22.539Z,1005.71
2018-12-19T08:13:22.596Z,1005.72
2018-12-19T08:15:15.574Z,1005.73
2018-12-19T08:16:15.624Z,1005.69
2018-12-19T08:18:08.605Z,1005.70
2018-12-19T08:19:08.654Z,1005.73
2018-12-19T08:21:01.631Z,1005.75
2018-12-19T08:22:01.687Z,1005.75
2018-12-19T08:23:54.665Z,1005.74
2018-12-19T08:24:54.712Z,1005.74
2018-12-19T08:26:47.689Z,1005.75
2018-12-19T08:27:47.746Z,1005.79
2018-12-19T08:29:40.763Z,1005.84
2018-12-19T08:30:40.774Z,1005.88
2018-12-19T08:32:33.756Z,1005.85
2018-12-19T08:33:33.806Z,1005.86
2018-12-19T08:35:26.784Z,1005.88
2018-12-19T08:36:26.836Z,1005.84
2018-12-19T08:38:19.844Z,1005.89
2018-12-19T08:39:19.866Z,1005.91
2018-12-19T08:41:12.890Z,1005.91
2018-12-19T08:42:12.911Z,1005.92
2018-12-19T08:44:05.896Z,1005.95
2018-12-19T08:45:05.942Z,1005.92
2018-12-19T08:46:58.918Z,1005.95
2018-12-19T08:47:58.987Z,1005.95
2018-12-19T08:49:52.165Z,1005.95
2018-12-19T08:50:52.216Z,1006.01
2018-12-19T08:52:45.196Z,1006.06
2018-12-19T08:53:45.267Z,1006.06
2018-12-19T08:55:38.219Z,1006.04
2018-12-19T08:56:38.275Z,1006.10
2018-12-19T08:58:31.277Z,1006.12
2018-12-19T08:59:31.313Z,1006.17
2018-12-19T09:01:24.293Z,1006.10
2018-12-19T09:02:24.369Z,1006.17
2018-12-19T09:04:17.322Z,1006.15
2018-12-19T09:05:17.371Z,1006.20
2018-12-19T09:07:10.362Z,1006.18
2018-12-19T09:08:10.410Z,1006.18
2018-12-19T09:10:03.399Z,1006.19
2018-12-19T09:11:05.902Z,1006.20
2018-12-19T09:12:56.429Z,1006.23
2018-12-19T09:13:56.478Z,1006.19
2018-12-19T09:15:49.464Z,1006.24
2018-12-19T09:16:49.518Z,1006.24
2018-12-19T09:18:42.499Z,1006.28
2018-12-19T09:19:42.555Z,1006.25
2018-12-19T09:21:35.523Z,1006.27
2018-12-19T09:22:35.576Z,1006.29
2018-12-19T09:24:28.587Z,1006.33
2018-12-19T09:25:28.617Z,1006.32
2018-12-19T09:27:21.614Z,1006.31
2018-12-19T09:28:21.652Z,1006.39
2018-12-19T09:30:14.633Z,1006.38
2018-12-19T09:31:14.687Z,1006.39
2018-12-19T09:33:07.671Z,1006.38
2018-12-19T09:34:07.719Z,1006.47
2018-12-19T09:36:00.697Z,1006.46
2018-12-19T09:37:00.754Z,1006.46
2018-12-19T09:38:53.734Z,1006.53
2018-12-19T09:39:53.783Z,1006.52
2018-12-19T09:41:46.766Z,1006.51
2018-12-19T09:42:46.825Z,1006.56
2018-12-19T09:44:39.810Z,1006.59
2018-12-19T09:45:39.859Z,1006.58
2018-12-19T09:47:32.854Z,1006.60
2018-12-19T09:48:32.892Z,1006.58
2018-12-19T09:50:25.868Z,1006.56
2018-12-19T09:51:25.925Z,1006.59
2018-12-19T09:53:18.918Z,1006.62
2018-12-19T09:54:18.966Z,1006.62
2018-12-19T09:56:11.963Z,1006.55
2018-12-19T09:57:12.011Z,1006.58
2018-12-19T09:59:04.995Z,1006.61
2018-12-19T10:00:07.028Z,1006.59
2018-12-19T10:01:58.021Z,1006.56
2018-12-19T10:02:58.138Z,1006.55
2018-12-19T10:04:51.063Z,1006.53
2018-12-19T10:05:51.108Z,1006.53
2018-12-19T10:07:44.097Z,1006.54
2018-12-19T10:08:44.140Z,1006.53
2018-12-19T10:10:37.115Z,1006.56
2018-12-19T10:11:37.172Z,1006.56
2018-12-19T10:13:30.154Z,1006.53
2018-12-19T10:14:30.204Z,1006.52
2018-12-19T10:16:23.188Z,1006.53
2018-12-19T10:17:23.242Z,1006.54
2018-12-19T10:19:16.228Z,1006.49
2018-12-19T10:20:16.275Z,1006.49
2018-12-19T10:22:09.304Z,1006.52
2018-12-19T10:23:09.309Z,1006.50
2018-12-19T10:25:02.298Z,1006.47
2018-12-19T10:26:02.344Z,1006.49
2018-12-19T10:27:55.341Z,1006.51
2018-12-19T10:28:55.377Z,1006.47
2018-12-19T10:30:48.353Z,1006.44
2018-12-19T10:31:48.410Z,1006.44
2018-12-19T10:33:41.392Z,1006.47
2018-12-19T10:34:41.441Z,1006.40
2018-12-19T10:36:34.418Z,1006.39
2018-12-19T10:37:34.475Z,1006.42
2018-12-19T10:39:27.458Z,1006.39
2018-12-19T10:40:27.509Z,1006.44
2018-12-19T10:42:20.491Z,1006.41
2018-12-19T10:43:20.554Z,1006.38
2018-12-19T10:45:13.558Z,1006.44
2018-12-19T10:46:13.613Z,1006.38
2018-12-19T10:48:06.607Z,1006.31
2018-12-19T10:49:06.643Z,1006.34
2018-12-19T10:50:59.623Z,1006.35
2018-12-19T10:51:59.677Z,1006.33
2018-12-19T10:53:52.662Z,1006.29
2018-12-19T10:54:52.713Z,1006.29
2018-12-19T10:56:45.689Z,1006.28
2018-12-19T10:57:45.743Z,1006.27
2018-12-19T10:59:38.744Z,1006.26
2018-12-19T11:00:38.794Z,1006.27
2018-12-19T11:02:31.786Z,1006.30
2018-12-19T11:03:31.844Z,1006.31
2018-12-19T11:05:24.833Z,1006.34
2018-12-19T11:06:24.889Z,1006.32
2018-12-19T11:08:17.867Z,1006.35
2018-12-19T11:09:17.919Z,1006.33
2018-12-19T11:11:10.898Z,1006.36
2018-12-19T11:12:10.954Z,1006.37
2018-12-19T11:14:03.955Z,1006.32
2018-12-19T11:15:03.989Z,1006.29
2018-12-19T11:16:56.968Z,1006.31
2018-12-19T11:17:57.025Z,1006.32
2018-12-19T11:19:50.020Z,1006.28
2018-12-19T11:20:50.239Z,1006.33
2018-12-19T11:22:43.036Z,1006.35
2018-12-19T11:23:43.095Z,1006.36
2018-12-19T11:25:36.075Z,1006.36
2018-12-19T11:26:36.127Z,1006.43
2018-12-19T11:28:29.120Z,1006.38
2018-12-19T11:29:29.171Z,1006.39
2018-12-19T11:31:23.176Z,1006.35
2018-12-19T11:32:23.229Z,1006.38
2018-12-19T11:34:16.220Z,1006.34
2018-12-19T11:35:16.266Z,1006.34
2018-12-19T11:37:09.242Z,1006.31
2018-12-19T11:38:09.301Z,1006.31
2018-12-19T11:40:02.282Z,1006.29
2018-12-19T11:41:02.332Z,1006.30
2018-12-19T11:42:55.819Z,1006.25
2018-12-19T11:43:55.874Z,1006.22
2018-12-19T11:45:48.858Z,1006.21
2018-12-19T11:46:48.906Z,1006.19
2018-12-19T11:48:41.896Z,1006.21
2018-12-19T11:49:41.943Z,1006.19
2018-12-19T11:51:34.922Z,1006.16
2018-12-19T11:52:34.977Z,1006.20
2018-12-19T11:54:27.968Z,1006.17
2018-12-19T11:55:28.011Z,1006.15
2018-12-19T11:57:20.992Z,1006.17
2018-12-19T11:58:21.048Z,1006.15
2018-12-19T12:00:14.046Z,1006.16
2018-12-19T12:01:14.082Z,1006.19
2018-12-19T12:03:07.062Z,1006.19
2018-12-19T12:04:07.116Z,1006.23
2018-12-19T12:06:00.113Z,1006.22
2018-12-19T12:07:00.170Z,1006.24
2018-12-19T12:08:53.168Z,1006.24
2018-12-19T12:09:53.211Z,1006.24
2018-12-19T12:11:46.191Z,1006.22
2018-12-19T12:12:46.235Z,1006.20
2018-12-19T12:14:39.237Z,1006.18
2018-12-19T12:15:39.352Z,1006.22
2018-12-19T12:17:32.271Z,1006.22
2018-12-19T12:18:32.331Z,1006.19
2018-12-19T12:20:25.355Z,1006.21
2018-12-19T12:21:25.364Z,1006.17
2018-12-19T12:23:18.342Z,1006.21
2018-12-19T12:24:18.394Z,1006.19
2018-12-19T12:26:11.389Z,1006.22
2018-12-19T12:27:11.441Z,1006.22
2018-12-19T12:29:04.417Z,1006.18
2018-12-19T12:30:04.476Z,1006.17
2018-12-19T12:31:57.452Z,1006.15
2018-12-19T12:32:57.506Z,1006.15
2018-12-19T12:34:50.496Z,1006.12
2018-12-19T12:35:50.549Z,1006.08
2018-12-19T12:37:43.544Z,1006.01
2018-12-19T12:38:43.598Z,1006.01
2018-12-19T12:40:36.599Z,1005.99
2018-12-19T12:41:36.679Z,1006.02
2018-12-19T12:43:30.133Z,1005.97
2018-12-19T12:44:30.187Z,1005.98
2018-12-19T12:46:23.178Z,1005.95
2018-12-19T12:47:23.223Z,1005.96
2018-12-19T12:49:16.209Z,1005.94
2018-12-19T12:50:16.259Z,1005.96
2018-12-19T12:52:09.241Z,1005.93
2018-12-19T12:53:09.299Z,1005.89
2018-12-19T12:55:02.288Z,1005.91
2018-12-19T12:56:02.333Z,1005.94
2018-12-19T12:57:55.309Z,1005.94
2018-12-19T12:58:55.372Z,1005.90
2018-12-19T13:00:48.350Z,1005.92
2018-12-19T13:01:48.400Z,1005.94
2018-12-19T13:03:41.380Z,1005.98
2018-12-19T13:04:41.438Z,1005.97
2018-12-19T13:06:34.426Z,1005.99
2018-12-19T13:07:34.489Z,1005.96
2018-12-19T13:09:27.464Z,1005.97
2018-12-19T13:10:27.512Z,1005.95
2018-12-19T13:12:20.493Z,1005.97
2018-12-19T13:13:20.543Z,1005.97
2018-12-19T13:15:13.532Z,1005.92
2018-12-19T13:16:13.579Z,1005.91
2018-12-19T13:18:06.560Z,1005.90
2018-12-19T13:19:06.618Z,1005.87
2018-12-19T13:20:59.601Z,1005.86
2018-12-19T13:21:59.650Z,1005.90
2018-12-19T13:23:52.631Z,1005.89
2018-12-19T13:24:52.699Z,1005.83
2018-12-19T13:26:45.671Z,1005.81
2018-12-19T13:27:45.721Z,1005.84
2018-12-19T13:29:38.706Z,1005.76
2018-12-19T13:30:38.757Z,1005.76
2018-12-19T13:32:31.736Z,1005.78
2018-12-19T13:33:31.795Z,1005.77
2018-12-19T13:35:24.783Z,1005.80
2018-12-19T13:36:24.837Z,1005.81
2018-12-19T13:38:17.816Z,1005.82
2018-12-19T13:39:17.874Z,1005.77
2018-12-19T13:41:10.856Z,1005.76
2018-12-19T13:42:10.913Z,1005.80
2018-12-19T13:44:03.884Z,1005.74
2018-12-19T13:45:03.942Z,1005.75
2018-12-19T13:46:56.928Z,1005.74
2018-12-19T13:47:56.977Z,1005.73
2018-12-19T13:49:49.971Z,1005.77
2018-12-19T13:50:50.025Z,1005.76
2018-12-19T13:52:43.009Z,1005.74
2018-12-19T13:53:43.066Z,1005.74
2018-12-19T13:55:36.070Z,1005.74
2018-12-19T13:56:36.122Z,1005.72
2018-12-19T13:58:29.103Z,1005.78
2018-12-19T13:59:29.165Z,1005.77
2018-12-19T14:01:22.148Z,1005.76
2018-12-19T14:02:22.197Z,1005.77
2018-12-19T14:04:15.176Z,1005.77
2018-12-19T14:05:15.228Z,1005.74
2018-12-19T14:07:08.226Z,1005.82
2018-12-19T14:08:08.274Z,1005.82
2018-12-19T14:10:01.264Z,1005.81
2018-12-19T14:11:01.312Z,1005.79
2018-12-19T14:12:54.292Z,1005.81
2018-12-19T14:13:54.352Z,1005.81
2018-12-19T14:15:47.338Z,1005.87
2018-12-19T14:16:47.386Z,1005.86
2018-12-19T14:18:40.363Z,1005.84
2018-12-19T14:19:40.418Z,1005.86
2018-12-19T14:21:33.403Z,1005.84
2018-12-19T14:22:33.456Z,1005.82
2018-12-19T14:24:26.434Z,1005.85
2018-12-19T14:25:26.489Z,1005.89
2018-12-19T14:27:19.488Z,1005.87
2018-12-19T14:28:19.538Z,1005.87
2018-12-19T14:30:12.520Z,1005.89
2018-12-19T14:31:12.571Z,1005.91
2018-12-19T14:33:05.548Z,1005.92
2018-12-19T14:34:05.605Z,1005.93
2018-12-19T14:35:58.590Z,1005.93
2018-12-19T14:36:58.642Z,1005.93
2018-12-19T14:38:51.620Z,1005.93
2018-12-19T14:39:51.678Z,1005.86
2018-12-19T14:41:44.661Z,1005.91
2018-12-19T14:42:44.712Z,1005.87
2018-12-19T14:44:37.691Z,1005.88
2018-12-19T14:45:37.747Z,1005.84
2018-12-19T14:47:30.738Z,1005.89
2018-12-19T14:48:30.782Z,1005.86
2018-12-19T14:50:23.771Z,1005.84
2018-12-19T14:51:23.822Z,1005.81
2018-12-19T14:53:16.798Z,1005.77
2018-12-19T14:54:16.856Z,1005.75
2018-12-19T14:56:09.843Z,1005.73
2018-12-19T14:57:09.894Z,1005.75
2018-12-19T14:59:03.422Z,1005.70
2018-12-19T15:00:03.434Z,1005.72
2018-12-19T15:01:56.419Z,1005.72
2018-12-19T15:02:56.472Z,1005.69
2018-12-19T15:04:49.442Z,1005.64
2018-12-19T15:05:49.504Z,1005.66
2018-12-19T15:07:42.503Z,1005.67
2018-12-19T15:08:42.539Z,1005.65
2018-12-19T15:10:35.524Z,1005.63
2018-12-19T15:11:35.580Z,1005.61
2018-12-19T15:13:28.551Z,1005.58
2018-12-19T15:14:28.610Z,1005.57
2018-12-19T15:16:21.612Z,1005.61
2018-12-19T15:17:21.662Z,1005.60
2018-12-19T15:19:14.653Z,1005.63
2018-12-19T15:20:14.708Z,1005.63
2018-12-19T15:22:07.695Z,1005.57
2018-12-19T15:23:07.747Z,1005.57
2018-12-19T15:25:00.742Z,1005.53
2018-12-19T15:26:00.779Z,1005.52
2018-12-19T15:27:53.763Z,1005.54
2018-12-19T15:28:53.813Z,1005.52
2018-12-19T15:30:46.798Z,1005.48
2018-12-19T15:31:46.844Z,1005.53
2018-12-19T15:33:39.831Z,1005.43
2018-12-19T15:34:39.890Z,1005.46
2018-12-19T15:36:32.892Z,1005.47
2018-12-19T15:37:32.961Z,1005.45
2018-12-19T15:39:25.936Z,1005.41
2018-12-19T15:40:25.992Z,1005.41
2018-12-19T15:42:18.988Z,1005.39
2018-12-19T15:43:19.026Z,1005.37
2018-12-19T15:45:12.006Z,1005.35
2018-12-19T15:46:12.063Z,1005.33
2018-12-19T15:48:05.058Z,1005.31
2018-12-19T15:49:05.110Z,1005.23
2018-12-19T15:50:58.099Z,1005.22
2018-12-19T15:51:58.143Z,1005.21
2018-12-19T15:53:51.124Z,1005.16
2018-12-19T15:54:51.181Z,1005.16
2018-12-19T15:56:44.172Z,1005.15
2018-12-19T15:57:44.217Z,1005.16
2018-12-19T15:59:37.196Z,1005.19
2018-12-19T16:00:37.252Z,1005.21
2018-12-19T16:02:30.248Z,1005.16
2018-12-19T16:03:30.306Z,1005.15
2018-12-19T16:05:23.283Z,1005.22
2018-12-19T16:06:23.340Z,1005.26
2018-12-19T16:08:16.375Z,1005.28
2018-12-19T16:09:16.376Z,1005.31
2018-12-19T16:11:09.886Z,1005.31
2018-12-19T16:12:09.412Z,1005.32
2018-12-19T16:14:02.393Z,1005.31
2018-12-19T16:15:02.446Z,1005.33
2018-12-19T16:16:55.465Z,1005.33
2018-12-19T16:17:55.482Z,1005.38
2018-12-19T16:19:48.461Z,1005.35
2018-12-19T16:20:48.516Z,1005.35
2018-12-19T16:22:42.011Z,1005.38
2018-12-19T16:23:42.059Z,1005.36
2018-12-19T16:25:35.544Z,1005.41
2018-12-19T16:26:35.601Z,1005.40
2018-12-19T16:28:28.587Z,1005.35
2018-12-19T16:29:28.633Z,1005.45
2018-12-19T16:31:21.617Z,1005.47
2018-12-19T16:32:21.668Z,1005.51
2018-12-19T16:34:14.653Z,1005.52
2018-12-19T16:35:14.708Z,1005.52
2018-12-19T16:37:07.696Z,1005.54
2018-12-19T16:38:07.760Z,1005.56
2018-12-19T16:40:00.724Z,1005.56
2018-12-19T16:41:00.780Z,1005.61
2018-12-19T16:42:53.770Z,1005.62
2018-12-19T16:43:53.817Z,1005.63
2018-12-19T16:45:46.818Z,1005.66
2018-12-19T16:46:46.849Z,1005.73
2018-12-19T16:48:39.857Z,1005.71
2018-12-19T16:49:39.894Z,1005.75
2018-12-19T16:51:32.881Z,1005.74
2018-12-19T16:52:32.931Z,1005.74
2018-12-19T16:54:25.912Z,1005.73
2018-12-19T16:55:25.969Z,1005.68
2018-12-19T16:57:18.952Z,1005.66
2018-12-19T16:58:19.004Z,1005.65
2018-12-19T17:00:11.985Z,1005.67
2018-12-19T17:01:12.040Z,1005.64
2018-12-19T17:03:05.033Z,1005.68
2018-12-19T17:04:05.110Z,1005.69
2018-12-19T17:05:58.073Z,1005.71
2018-12-19T17:06:58.110Z,1005.71
2018-12-19T17:08:51.103Z,1005.70
2018-12-19T17:09:51.152Z,1005.73
2018-12-19T17:11:44.139Z,1005.77
2018-12-19T17:12:44.188Z,1005.76
2018-12-19T17:14:37.167Z,1005.73
2018-12-19T17:15:37.226Z,1005.74
2018-12-19T17:17:30.226Z,1005.70
2018-12-19T17:18:30.261Z,1005.74
2018-12-19T17:20:23.241Z,1005.72
2018-12-19T17:21:23.301Z,1005.74
2018-12-19T17:23:16.793Z,1005.69
2018-12-19T17:24:16.838Z,1005.69
2018-12-19T17:26:09.824Z,1005.69
2018-12-19T17:27:09.880Z,1005.65